sensor_id;sensor_type;location;lat;lon;timestamp;P1;durP1;ratioP1;P2;durP2;ratioP2
45548;SDS011;31270;48.328;10.096;2023-06-24T00:01:36;6.78;;;4.80;;
45548;SDS011;31270;48.328;10.096;2023-06-24T00:04:03;7.50;;;4.85;;
45548;SDS011;31270;48.328;10.096;2023-06-24T00:06:29;6.57;;;5.45;;
45548;SDS011;31270;48.328;10.096;2023-06-24T00:08:54;5.45;;;4.57;;
45548;SDS011;31270;48.328;10.096;2023-06-24T00:11:26;6.22;;;4.47;;
45548;SDS011;31270;48.328;10.096;2023-06-24T00:13:55;6.15;;;4.90;;
45548;SDS011;31270;48.328;10.096;2023-06-24T00:16:21;5.88;;;4.70;;
45548;SDS011;31270;48.328;10.096;2023-06-24T00:18:52;6.80;;;4.80;;
45548;SDS011;31270;48.328;10.096;2023-06-24T00:21:18;5.75;;;4.45;;
45548;SDS011;31270;48.328;10.096;2023-06-24T00:23:44;5.97;;;4.60;;
45548;SDS011;31270;48.328;10.096;2023-06-24T00:26:10;7.03;;;5.35;;
45548;SDS011;31270;48.328;10.096;2023-06-24T00:28:35;6.10;;;4.93;;
45548;SDS011;31270;48.328;10.096;2023-06-24T00:31:01;6.85;;;5.10;;
45548;SDS011;31270;48.328;10.096;2023-06-24T00:33:28;5.82;;;4.78;;
45548;SDS011;31270;48.328;10.096;2023-06-24T00:35:54;7.53;;;5.20;;
45548;SDS011;31270;48.328;10.096;2023-06-24T00:38:21;6.47;;;4.82;;
45548;SDS011;31270;48.328;10.096;2023-06-24T00:40:47;6.32;;;5.03;;
45548;SDS011;31270;48.328;10.096;2023-06-24T00:43:13;6.32;;;5.00;;
45548;SDS011;31270;48.328;10.096;2023-06-24T00:45:38;5.65;;;4.82;;
45548;SDS011;31270;48.328;10.096;2023-06-24T00:48:04;6.15;;;5.03;;
45548;SDS011;31270;48.328;10.096;2023-06-24T00:50:30;6.07;;;4.90;;
45548;SDS011;31270;48.328;10.096;2023-06-24T00:52:56;6.70;;;5.10;;
45548;SDS011;31270;48.328;10.096;2023-06-24T00:55:21;8.32;;;4.90;;
45548;SDS011;31270;48.328;10.096;2023-06-24T00:57:49;7.45;;;5.43;;
45548;SDS011;31270;48.328;10.096;2023-06-24T01:00:17;6.15;;;5.03;;
45548;SDS011;31270;48.328;10.096;2023-06-24T01:02:43;7.40;;;5.63;;
45548;SDS011;31270;48.328;10.096;2023-06-24T01:05:12;6.13;;;4.93;;
45548;SDS011;31270;48.328;10.096;2023-06-24T01:07:39;6.63;;;4.90;;
45548;SDS011;31270;48.328;10.096;2023-06-24T01:10:06;5.93;;;4.90;;
45548;SDS011;31270;48.328;10.096;2023-06-24T01:12:34;6.75;;;5.28;;
45548;SDS011;31270;48.328;10.096;2023-06-24T01:15:01;6.30;;;5.30;;
45548;SDS011;31270;48.328;10.096;2023-06-24T01:20:23;8.02;;;5.63;;
45548;SDS011;31270;48.328;10.096;2023-06-24T01:23:06;8.75;;;6.22;;
45548;SDS011;31270;48.328;10.096;2023-06-24T01:31:32;6.90;;;5.90;;
45548;SDS011;31270;48.328;10.096;2023-06-24T01:34:06;7.00;;;5.88;;
45548;SDS011;31270;48.328;10.096;2023-06-24T01:37:00;7.65;;;5.95;;
45548;SDS011;31270;48.328;10.096;2023-06-24T01:40:11;7.85;;;6.90;;
45548;SDS011;31270;48.328;10.096;2023-06-24T01:42:43;11.18;;;7.40;;
45548;SDS011;31270;48.328;10.096;2023-06-24T01:45:27;10.25;;;7.88;;
45548;SDS011;31270;48.328;10.096;2023-06-24T01:48:12;9.85;;;7.65;;
45548;SDS011;31270;48.328;10.096;2023-06-24T01:50:42;9.75;;;6.78;;
45548;SDS011;31270;48.328;10.096;2023-06-24T01:53:13;11.02;;;8.23;;
45548;SDS011;31270;48.328;10.096;2023-06-24T01:55:40;11.93;;;8.65;;
45548;SDS011;31270;48.328;10.096;2023-06-24T01:58:07;12.63;;;8.07;;
45548;SDS011;31270;48.328;10.096;2023-06-24T02:00:36;10.15;;;8.10;;
45548;SDS011;31270;48.328;10.096;2023-06-24T02:03:04;14.38;;;8.43;;
45548;SDS011;31270;48.328;10.096;2023-06-24T02:05:31;15.45;;;8.13;;
45548;SDS011;31270;48.328;10.096;2023-06-24T02:07:58;10.70;;;7.93;;
45548;SDS011;31270;48.328;10.096;2023-06-24T02:10:27;12.02;;;7.50;;
45548;SDS011;31270;48.328;10.096;2023-06-24T02:12:53;9.68;;;7.80;;
45548;SDS011;31270;48.328;10.096;2023-06-24T02:15:20;11.45;;;8.73;;
45548;SDS011;31270;48.328;10.096;2023-06-24T02:17:49;9.75;;;8.10;;
45548;SDS011;31270;48.328;10.096;2023-06-24T02:20:16;13.82;;;7.60;;
45548;SDS011;31270;48.328;10.096;2023-06-24T02:22:44;8.98;;;7.10;;
45548;SDS011;31270;48.328;10.096;2023-06-24T02:25:11;9.32;;;6.55;;
45548;SDS011;31270;48.328;10.096;2023-06-24T02:27:37;10.70;;;7.53;;
45548;SDS011;31270;48.328;10.096;2023-06-24T02:30:04;10.73;;;8.63;;
45548;SDS011;31270;48.328;10.096;2023-06-24T02:32:32;13.48;;;7.75;;
45548;SDS011;31270;48.328;10.096;2023-06-24T02:34:57;10.27;;;8.05;;
45548;SDS011;31270;48.328;10.096;2023-06-24T02:37:24;10.10;;;7.93;;
45548;SDS011;31270;48.328;10.096;2023-06-24T02:39:50;11.48;;;7.57;;
45548;SDS011;31270;48.328;10.096;2023-06-24T02:42:15;9.68;;;7.63;;
45548;SDS011;31270;48.328;10.096;2023-06-24T02:44:41;13.32;;;7.55;;
45548;SDS011;31270;48.328;10.096;2023-06-24T02:47:09;9.82;;;7.75;;
45548;SDS011;31270;48.328;10.096;2023-06-24T02:49:36;10.20;;;7.32;;
45548;SDS011;31270;48.328;10.096;2023-06-24T02:52:04;10.25;;;7.65;;
45548;SDS011;31270;48.328;10.096;2023-06-24T02:54:30;8.93;;;7.80;;
45548;SDS011;31270;48.328;10.096;2023-06-24T02:56:57;12.30;;;7.93;;
45548;SDS011;31270;48.328;10.096;2023-06-24T02:59:24;11.77;;;8.32;;
45548;SDS011;31270;48.328;10.096;2023-06-24T03:01:50;12.30;;;7.85;;
45548;SDS011;31270;48.328;10.096;2023-06-24T03:04:16;8.52;;;7.20;;
45548;SDS011;31270;48.328;10.096;2023-06-24T03:06:43;7.80;;;6.20;;
45548;SDS011;31270;48.328;10.096;2023-06-24T03:09:10;9.02;;;6.35;;
45548;SDS011;31270;48.328;10.096;2023-06-24T03:11:42;9.00;;;6.03;;
45548;SDS011;31270;48.328;10.096;2023-06-24T03:14:08;8.90;;;6.13;;
45548;SDS011;31270;48.328;10.096;2023-06-24T03:16:38;9.20;;;6.57;;
45548;SDS011;31270;48.328;10.096;2023-06-24T03:19:04;7.00;;;6.03;;
45548;SDS011;31270;48.328;10.096;2023-06-24T03:21:30;7.50;;;5.95;;
45548;SDS011;31270;48.328;10.096;2023-06-24T03:23:56;8.32;;;5.35;;
45548;SDS011;31270;48.328;10.096;2023-06-24T03:26:24;7.43;;;5.43;;
45548;SDS011;31270;48.328;10.096;2023-06-24T03:28:59;5.90;;;4.75;;
45548;SDS011;31270;48.328;10.096;2023-06-24T03:31:26;6.43;;;5.10;;
45548;SDS011;31270;48.328;10.096;2023-06-24T03:33:51;6.35;;;5.22;;
45548;SDS011;31270;48.328;10.096;2023-06-24T03:36:17;6.88;;;5.20;;
45548;SDS011;31270;48.328;10.096;2023-06-24T03:38:42;6.43;;;5.10;;
45548;SDS011;31270;48.328;10.096;2023-06-24T03:41:08;7.07;;;5.57;;
45548;SDS011;31270;48.328;10.096;2023-06-24T03:43:33;7.13;;;5.50;;
45548;SDS011;31270;48.328;10.096;2023-06-24T03:45:59;6.93;;;5.10;;
45548;SDS011;31270;48.328;10.096;2023-06-24T03:48:25;6.97;;;5.43;;
45548;SDS011;31270;48.328;10.096;2023-06-24T03:50:51;8.07;;;5.60;;
45548;SDS011;31270;48.328;10.096;2023-06-24T03:53:16;6.88;;;5.35;;
45548;SDS011;31270;48.328;10.096;2023-06-24T03:55:42;7.97;;;5.32;;
45548;SDS011;31270;48.328;10.096;2023-06-24T03:58:07;8.07;;;5.93;;
45548;SDS011;31270;48.328;10.096;2023-06-24T04:00:33;7.53;;;5.10;;
45548;SDS011;31270;48.328;10.096;2023-06-24T04:03:04;6.65;;;5.35;;
45548;SDS011;31270;48.328;10.096;2023-06-24T04:05:29;7.20;;;5.20;;
45548;SDS011;31270;48.328;10.096;2023-06-24T04:07:55;7.60;;;5.40;;
45548;SDS011;31270;48.328;10.096;2023-06-24T04:10:21;7.10;;;5.53;;
45548;SDS011;31270;48.328;10.096;2023-06-24T04:12:46;6.80;;;5.38;;
45548;SDS011;31270;48.328;10.096;2023-06-24T04:15:12;6.55;;;5.15;;
45548;SDS011;31270;48.328;10.096;2023-06-24T04:17:44;6.68;;;4.97;;
45548;SDS011;31270;48.328;10.096;2023-06-24T04:20:10;6.85;;;5.28;;
45548;SDS011;31270;48.328;10.096;2023-06-24T04:22:36;8.57;;;5.38;;
45548;SDS011;31270;48.328;10.096;2023-06-24T04:25:03;7.07;;;5.60;;
45548;SDS011;31270;48.328;10.096;2023-06-24T04:27:31;5.72;;;5.13;;
45548;SDS011;31270;48.328;10.096;2023-06-24T04:30:05;6.22;;;5.35;;
45548;SDS011;31270;48.328;10.096;2023-06-24T04:32:31;5.80;;;4.85;;
45548;SDS011;31270;48.328;10.096;2023-06-24T04:35:00;6.35;;;5.05;;
45548;SDS011;31270;48.328;10.096;2023-06-24T04:37:26;5.70;;;4.78;;
45548;SDS011;31270;48.328;10.096;2023-06-24T04:39:51;6.38;;;4.80;;
45548;SDS011;31270;48.328;10.096;2023-06-24T04:42:17;6.30;;;4.97;;
45548;SDS011;31270;48.328;10.096;2023-06-24T04:44:43;7.20;;;5.28;;
45548;SDS011;31270;48.328;10.096;2023-06-24T04:47:08;6.57;;;5.10;;
45548;SDS011;31270;48.328;10.096;2023-06-24T04:49:34;6.97;;;4.72;;
45548;SDS011;31270;48.328;10.096;2023-06-24T04:52:00;6.47;;;5.07;;
45548;SDS011;31270;48.328;10.096;2023-06-24T04:54:26;7.15;;;5.13;;
45548;SDS011;31270;48.328;10.096;2023-06-24T04:56:52;5.32;;;4.70;;
45548;SDS011;31270;48.328;10.096;2023-06-24T04:59:20;5.68;;;4.72;;
45548;SDS011;31270;48.328;10.096;2023-06-24T05:01:46;6.82;;;5.38;;
45548;SDS011;31270;48.328;10.096;2023-06-24T05:04:12;8.07;;;5.40;;
45548;SDS011;31270;48.328;10.096;2023-06-24T05:06:37;6.78;;;4.85;;
45548;SDS011;31270;48.328;10.096;2023-06-24T05:09:03;6.47;;;5.32;;
45548;SDS011;31270;48.328;10.096;2023-06-24T05:11:28;6.90;;;5.47;;
45548;SDS011;31270;48.328;10.096;2023-06-24T05:13:54;6.18;;;5.05;;
45548;SDS011;31270;48.328;10.096;2023-06-24T05:16:19;7.68;;;5.22;;
45548;SDS011;31270;48.328;10.096;2023-06-24T05:18:45;7.38;;;5.38;;
45548;SDS011;31270;48.328;10.096;2023-06-24T05:21:11;7.10;;;5.57;;
45548;SDS011;31270;48.328;10.096;2023-06-24T05:23:36;6.43;;;5.63;;
45548;SDS011;31270;48.328;10.096;2023-06-24T05:26:02;8.15;;;5.28;;
45548;SDS011;31270;48.328;10.096;2023-06-24T05:28:28;6.32;;;5.43;;
45548;SDS011;31270;48.328;10.096;2023-06-24T05:30:53;6.90;;;5.95;;
45548;SDS011;31270;48.328;10.096;2023-06-24T05:33:19;7.10;;;5.90;;
45548;SDS011;31270;48.328;10.096;2023-06-24T05:35:44;12.10;;;5.88;;
45548;SDS011;31270;48.328;10.096;2023-06-24T05:38:10;6.95;;;6.03;;
45548;SDS011;31270;48.328;10.096;2023-06-24T05:40:36;6.32;;;5.13;;
45548;SDS011;31270;48.328;10.096;2023-06-24T05:43:02;7.28;;;5.60;;
45548;SDS011;31270;48.328;10.096;2023-06-24T05:45:28;6.88;;;5.28;;
45548;SDS011;31270;48.328;10.096;2023-06-24T05:47:53;7.95;;;5.38;;
45548;SDS011;31270;48.328;10.096;2023-06-24T05:50:19;7.68;;;5.00;;
45548;SDS011;31270;48.328;10.096;2023-06-24T05:52:44;7.18;;;5.60;;
45548;SDS011;31270;48.328;10.096;2023-06-24T05:55:10;5.65;;;5.07;;
45548;SDS011;31270;48.328;10.096;2023-06-24T05:57:38;6.60;;;5.57;;
45548;SDS011;31270;48.328;10.096;2023-06-24T06:00:05;6.25;;;5.25;;
45548;SDS011;31270;48.328;10.096;2023-06-24T06:02:31;7.70;;;4.65;;
45548;SDS011;31270;48.328;10.096;2023-06-24T06:04:57;5.70;;;4.90;;
45548;SDS011;31270;48.328;10.096;2023-06-24T06:07:22;7.15;;;5.15;;
45548;SDS011;31270;48.328;10.096;2023-06-24T06:09:48;5.60;;;5.00;;
45548;SDS011;31270;48.328;10.096;2023-06-24T06:12:13;6.25;;;5.18;;
45548;SDS011;31270;48.328;10.096;2023-06-24T06:14:39;7.68;;;5.15;;
45548;SDS011;31270;48.328;10.096;2023-06-24T06:17:05;6.15;;;4.82;;
45548;SDS011;31270;48.328;10.096;2023-06-24T06:19:30;5.50;;;5.00;;
45548;SDS011;31270;48.328;10.096;2023-06-24T06:21:56;4.75;;;4.07;;
45548;SDS011;31270;48.328;10.096;2023-06-24T06:24:21;4.88;;;4.38;;
45548;SDS011;31270;48.328;10.096;2023-06-24T06:26:48;5.47;;;4.15;;
45548;SDS011;31270;48.328;10.096;2023-06-24T06:29:13;5.32;;;4.53;;
45548;SDS011;31270;48.328;10.096;2023-06-24T06:31:39;6.60;;;4.70;;
45548;SDS011;31270;48.328;10.096;2023-06-24T06:34:05;7.13;;;5.28;;
45548;SDS011;31270;48.328;10.096;2023-06-24T06:36:30;5.00;;;4.25;;
45548;SDS011;31270;48.328;10.096;2023-06-24T06:38:56;5.38;;;4.82;;
45548;SDS011;31270;48.328;10.096;2023-06-24T06:41:22;6.32;;;4.80;;
45548;SDS011;31270;48.328;10.096;2023-06-24T06:43:50;5.25;;;4.63;;
45548;SDS011;31270;48.328;10.096;2023-06-24T06:46:19;5.30;;;4.18;;
45548;SDS011;31270;48.328;10.096;2023-06-24T06:48:44;5.32;;;4.70;;
45548;SDS011;31270;48.328;10.096;2023-06-24T06:51:10;5.88;;;4.68;;
45548;SDS011;31270;48.328;10.096;2023-06-24T06:53:37;6.88;;;4.95;;
45548;SDS011;31270;48.328;10.096;2023-06-24T06:56:03;6.15;;;5.38;;
45548;SDS011;31270;48.328;10.096;2023-06-24T06:58:28;7.88;;;5.22;;
45548;SDS011;31270;48.328;10.096;2023-06-24T07:00:55;5.13;;;4.63;;
45548;SDS011;31270;48.328;10.096;2023-06-24T07:03:21;5.78;;;5.20;;
45548;SDS011;31270;48.328;10.096;2023-06-24T07:05:47;5.25;;;4.63;;
45548;SDS011;31270;48.328;10.096;2023-06-24T07:08:12;6.70;;;5.18;;
45548;SDS011;31270;48.328;10.096;2023-06-24T07:10:38;8.55;;;4.78;;
45548;SDS011;31270;48.328;10.096;2023-06-24T07:13:04;5.13;;;4.63;;
45548;SDS011;31270;48.328;10.096;2023-06-24T07:15:29;6.05;;;5.30;;
45548;SDS011;31270;48.328;10.096;2023-06-24T07:17:55;5.32;;;4.63;;
45548;SDS011;31270;48.328;10.096;2023-06-24T07:20:21;7.63;;;4.80;;
45548;SDS011;31270;48.328;10.096;2023-06-24T07:22:47;5.93;;;4.70;;
45548;SDS011;31270;48.328;10.096;2023-06-24T07:25:13;7.18;;;4.72;;
45548;SDS011;31270;48.328;10.096;2023-06-24T07:27:38;7.75;;;5.50;;
45548;SDS011;31270;48.328;10.096;2023-06-24T07:30:05;6.57;;;5.57;;
45548;SDS011;31270;48.328;10.096;2023-06-24T07:32:31;6.10;;;5.50;;
45548;SDS011;31270;48.328;10.096;2023-06-24T07:34:56;5.80;;;4.93;;
45548;SDS011;31270;48.328;10.096;2023-06-24T07:37:22;7.65;;;5.57;;
45548;SDS011;31270;48.328;10.096;2023-06-24T07:39:48;7.90;;;5.78;;
45548;SDS011;31270;48.328;10.096;2023-06-24T07:42:14;5.47;;;4.97;;
45548;SDS011;31270;48.328;10.096;2023-06-24T07:44:47;7.72;;;5.55;;
45548;SDS011;31270;48.328;10.096;2023-06-24T07:47:13;6.35;;;5.47;;
45548;SDS011;31270;48.328;10.096;2023-06-24T07:49:39;5.45;;;4.90;;
45548;SDS011;31270;48.328;10.096;2023-06-24T07:52:05;6.93;;;6.18;;
45548;SDS011;31270;48.328;10.096;2023-06-24T07:54:31;5.55;;;5.05;;
45548;SDS011;31270;48.328;10.096;2023-06-24T07:56:57;7.22;;;6.00;;
45548;SDS011;31270;48.328;10.096;2023-06-24T07:59:22;5.63;;;5.13;;
45548;SDS011;31270;48.328;10.096;2023-06-24T08:01:48;6.78;;;6.07;;
45548;SDS011;31270;48.328;10.096;2023-06-24T08:04:14;6.90;;;5.80;;
45548;SDS011;31270;48.328;10.096;2023-06-24T08:06:40;7.22;;;5.13;;
45548;SDS011;31270;48.328;10.096;2023-06-24T08:09:06;6.18;;;5.40;;
45548;SDS011;31270;48.328;10.096;2023-06-24T08:11:32;6.85;;;5.85;;
45548;SDS011;31270;48.328;10.096;2023-06-24T08:13:58;6.95;;;5.78;;
45548;SDS011;31270;48.328;10.096;2023-06-24T08:16:23;5.93;;;5.22;;
45548;SDS011;31270;48.328;10.096;2023-06-24T08:18:49;10.18;;;5.72;;
45548;SDS011;31270;48.328;10.096;2023-06-24T08:21:14;6.78;;;5.82;;
45548;SDS011;31270;48.328;10.096;2023-06-24T08:23:40;11.65;;;9.10;;
45548;SDS011;31270;48.328;10.096;2023-06-24T08:26:06;8.38;;;6.28;;
45548;SDS011;31270;48.328;10.096;2023-06-24T08:28:32;6.85;;;5.85;;
45548;SDS011;31270;48.328;10.096;2023-06-24T08:30:58;6.30;;;5.70;;
45548;SDS011;31270;48.328;10.096;2023-06-24T08:33:24;6.10;;;5.20;;
45548;SDS011;31270;48.328;10.096;2023-06-24T08:35:49;6.13;;;5.53;;
45548;SDS011;31270;48.328;10.096;2023-06-24T08:38:15;7.93;;;6.25;;
45548;SDS011;31270;48.328;10.096;2023-06-24T08:40:40;6.25;;;5.65;;
45548;SDS011;31270;48.328;10.096;2023-06-24T08:43:08;6.50;;;5.78;;
45548;SDS011;31270;48.328;10.096;2023-06-24T08:45:34;6.68;;;5.72;;
45548;SDS011;31270;48.328;10.096;2023-06-24T08:48:00;7.20;;;6.13;;
45548;SDS011;31270;48.328;10.096;2023-06-24T08:50:27;26.23;;;10.60;;
45548;SDS011;31270;48.328;10.096;2023-06-24T08:53:06;8.38;;;6.32;;
45548;SDS011;31270;48.328;10.096;2023-06-24T08:55:36;9.45;;;6.50;;
45548;SDS011;31270;48.328;10.096;2023-06-24T08:58:08;6.88;;;5.35;;
45548;SDS011;31270;48.328;10.096;2023-06-24T09:00:34;6.65;;;5.95;;
45548;SDS011;31270;48.328;10.096;2023-06-24T09:03:00;7.85;;;6.18;;
45548;SDS011;31270;48.328;10.096;2023-06-24T09:05:26;6.10;;;5.25;;
45548;SDS011;31270;48.328;10.096;2023-06-24T09:07:51;6.38;;;5.70;;
45548;SDS011;31270;48.328;10.096;2023-06-24T09:10:33;8.07;;;6.05;;
45548;SDS011;31270;48.328;10.096;2023-06-24T09:13:02;6.95;;;5.10;;
45548;SDS011;31270;48.328;10.096;2023-06-24T09:15:30;7.38;;;5.63;;
45548;SDS011;31270;48.328;10.096;2023-06-24T09:18:00;5.55;;;4.88;;
45548;SDS011;31270;48.328;10.096;2023-06-24T09:20:27;5.55;;;5.00;;
45548;SDS011;31270;48.328;10.096;2023-06-24T09:23:00;6.00;;;4.63;;
45548;SDS011;31270;48.328;10.096;2023-06-24T09:25:30;9.10;;;5.85;;
45548;SDS011;31270;48.328;10.096;2023-06-24T09:28:02;16.75;;;6.75;;
45548;SDS011;31270;48.328;10.096;2023-06-24T09:30:28;8.15;;;5.30;;
45548;SDS011;31270;48.328;10.096;2023-06-24T09:32:55;6.07;;;5.05;;
45548;SDS011;31270;48.328;10.096;2023-06-24T09:35:22;5.32;;;4.82;;
45548;SDS011;31270;48.328;10.096;2023-06-24T09:37:52;5.68;;;4.93;;
45548;SDS011;31270;48.328;10.096;2023-06-24T09:40:19;5.70;;;5.20;;
45548;SDS011;31270;48.328;10.096;2023-06-24T09:42:52;6.40;;;5.03;;
45548;SDS011;31270;48.328;10.096;2023-06-24T09:45:26;7.47;;;5.60;;
45548;SDS011;31270;48.328;10.096;2023-06-24T09:47:53;6.72;;;5.93;;
45548;SDS011;31270;48.328;10.096;2023-06-24T09:50:20;6.45;;;5.20;;
45548;SDS011;31270;48.328;10.096;2023-06-24T09:52:46;5.88;;;5.00;;
45548;SDS011;31270;48.328;10.096;2023-06-24T09:55:13;5.68;;;5.07;;
45548;SDS011;31270;48.328;10.096;2023-06-24T09:57:41;5.57;;;5.07;;
45548;SDS011;31270;48.328;10.096;2023-06-24T10:00:10;7.53;;;5.88;;
45548;SDS011;31270;48.328;10.096;2023-06-24T10:02:37;5.10;;;4.55;;
45548;SDS011;31270;48.328;10.096;2023-06-24T10:05:03;6.18;;;4.80;;
45548;SDS011;31270;48.328;10.096;2023-06-24T10:07:29;6.82;;;6.22;;
45548;SDS011;31270;48.328;10.096;2023-06-24T10:09:57;6.65;;;5.88;;
45548;SDS011;31270;48.328;10.096;2023-06-24T10:12:23;5.80;;;5.10;;
45548;SDS011;31270;48.328;10.096;2023-06-24T10:14:51;6.20;;;5.70;;
45548;SDS011;31270;48.328;10.096;2023-06-24T10:17:17;5.97;;;5.38;;
45548;SDS011;31270;48.328;10.096;2023-06-24T10:19:43;6.05;;;5.45;;
45548;SDS011;31270;48.328;10.096;2023-06-24T10:22:10;6.18;;;5.55;;
45548;SDS011;31270;48.328;10.096;2023-06-24T10:24:38;5.80;;;5.30;;
45548;SDS011;31270;48.328;10.096;2023-06-24T10:27:24;8.45;;;5.95;;
45548;SDS011;31270;48.328;10.096;2023-06-24T10:29:52;8.20;;;5.78;;
45548;SDS011;31270;48.328;10.096;2023-06-24T10:32:21;6.07;;;5.47;;
45548;SDS011;31270;48.328;10.096;2023-06-24T10:34:53;6.28;;;5.30;;
45548;SDS011;31270;48.328;10.096;2023-06-24T10:37:22;6.85;;;6.15;;
45548;SDS011;31270;48.328;10.096;2023-06-24T10:39:52;6.90;;;6.30;;
45548;SDS011;31270;48.328;10.096;2023-06-24T10:45:17;6.05;;;5.55;;
45548;SDS011;31270;48.328;10.096;2023-06-24T10:50:14;5.68;;;5.07;;
45548;SDS011;31270;48.328;10.096;2023-06-24T10:52:45;7.65;;;5.60;;
45548;SDS011;31270;48.328;10.096;2023-06-24T10:55:14;6.65;;;5.65;;
45548;SDS011;31270;48.328;10.096;2023-06-24T10:57:41;6.32;;;5.20;;
45548;SDS011;31270;48.328;10.096;2023-06-24T11:00:07;5.43;;;4.90;;
45548;SDS011;31270;48.328;10.096;2023-06-24T11:02:33;5.82;;;5.30;;
45548;SDS011;31270;48.328;10.096;2023-06-24T11:05:01;6.15;;;5.43;;
45548;SDS011;31270;48.328;10.096;2023-06-24T11:07:28;5.35;;;4.85;;
45548;SDS011;31270;48.328;10.096;2023-06-24T11:09:56;5.05;;;4.55;;
45548;SDS011;31270;48.328;10.096;2023-06-24T11:12:33;6.00;;;5.40;;
45548;SDS011;31270;48.328;10.096;2023-06-24T11:15:10;7.57;;;5.88;;
45548;SDS011;31270;48.328;10.096;2023-06-24T11:17:39;5.88;;;5.32;;
45548;SDS011;31270;48.328;10.096;2023-06-24T11:20:09;5.28;;;4.78;;
45548;SDS011;31270;48.328;10.096;2023-06-24T11:22:36;6.32;;;5.22;;
45548;SDS011;31270;48.328;10.096;2023-06-24T11:25:03;6.68;;;5.15;;
45548;SDS011;31270;48.328;10.096;2023-06-24T11:27:30;6.28;;;4.47;;
45548;SDS011;31270;48.328;10.096;2023-06-24T11:30:00;6.50;;;5.20;;
45548;SDS011;31270;48.328;10.096;2023-06-24T11:32:38;5.63;;;5.13;;
45548;SDS011;31270;48.328;10.096;2023-06-24T11:35:06;5.78;;;5.18;;
45548;SDS011;31270;48.328;10.096;2023-06-24T11:37:34;6.25;;;5.40;;
45548;SDS011;31270;48.328;10.096;2023-06-24T11:40:03;5.00;;;4.50;;
45548;SDS011;31270;48.328;10.096;2023-06-24T11:42:35;5.78;;;5.20;;
45548;SDS011;31270;48.328;10.096;2023-06-24T11:45:06;7.07;;;5.07;;
45548;SDS011;31270;48.328;10.096;2023-06-24T11:47:34;8.15;;;5.25;;
45548;SDS011;31270;48.328;10.096;2023-06-24T11:50:00;6.57;;;5.97;;
45548;SDS011;31270;48.328;10.096;2023-06-24T11:52:37;5.97;;;5.38;;
45548;SDS011;31270;48.328;10.096;2023-06-24T11:55:10;5.30;;;4.80;;
45548;SDS011;31270;48.328;10.096;2023-06-24T11:57:49;5.20;;;4.70;;
45548;SDS011;31270;48.328;10.096;2023-06-24T12:00:15;6.20;;;5.55;;
45548;SDS011;31270;48.328;10.096;2023-06-24T12:02:41;5.75;;;5.10;;
45548;SDS011;31270;48.328;10.096;2023-06-24T12:05:06;5.55;;;5.05;;
45548;SDS011;31270;48.328;10.096;2023-06-24T12:07:32;4.88;;;4.47;;
45548;SDS011;31270;48.328;10.096;2023-06-24T12:09:59;5.32;;;4.82;;
45548;SDS011;31270;48.328;10.096;2023-06-24T12:12:24;4.75;;;4.25;;
45548;SDS011;31270;48.328;10.096;2023-06-24T12:14:50;4.47;;;4.05;;
45548;SDS011;31270;48.328;10.096;2023-06-24T12:17:15;3.90;;;3.55;;
45548;SDS011;31270;48.328;10.096;2023-06-24T12:19:41;4.60;;;4.20;;
45548;SDS011;31270;48.328;10.096;2023-06-24T12:22:07;4.75;;;4.18;;
45548;SDS011;31270;48.328;10.096;2023-06-24T12:24:39;4.47;;;4.03;;
45548;SDS011;31270;48.328;10.096;2023-06-24T12:27:05;6.00;;;4.10;;
45548;SDS011;31270;48.328;10.096;2023-06-24T12:29:30;4.40;;;3.58;;
45548;SDS011;31270;48.328;10.096;2023-06-24T12:31:56;4.80;;;3.92;;
45548;SDS011;31270;48.328;10.096;2023-06-24T12:34:21;4.40;;;4.00;;
45548;SDS011;31270;48.328;10.096;2023-06-24T12:36:47;5.20;;;3.42;;
45548;SDS011;31270;48.328;10.096;2023-06-24T12:39:13;3.85;;;3.13;;
45548;SDS011;31270;48.328;10.096;2023-06-24T12:41:39;3.63;;;3.33;;
45548;SDS011;31270;48.328;10.096;2023-06-24T12:44:04;3.30;;;3.00;;
45548;SDS011;31270;48.328;10.096;2023-06-24T12:46:30;3.20;;;2.90;;
45548;SDS011;31270;48.328;10.096;2023-06-24T12:48:55;4.15;;;3.75;;
45548;SDS011;31270;48.328;10.096;2023-06-24T12:51:21;3.90;;;3.50;;
45548;SDS011;31270;48.328;10.096;2023-06-24T12:53:47;3.72;;;3.42;;
45548;SDS011;31270;48.328;10.096;2023-06-24T12:56:13;4.03;;;3.63;;
45548;SDS011;31270;48.328;10.096;2023-06-24T12:58:39;3.92;;;3.53;;
45548;SDS011;31270;48.328;10.096;2023-06-24T13:01:04;3.60;;;3.30;;
45548;SDS011;31270;48.328;10.096;2023-06-24T13:03:30;3.80;;;3.40;;
45548;SDS011;31270;48.328;10.096;2023-06-24T13:05:55;3.38;;;3.08;;
45548;SDS011;31270;48.328;10.096;2023-06-24T13:08:22;3.45;;;3.15;;
45548;SDS011;31270;48.328;10.096;2023-06-24T13:10:47;4.45;;;3.22;;
45548;SDS011;31270;48.328;10.096;2023-06-24T13:13:13;3.85;;;3.33;;
45548;SDS011;31270;48.328;10.096;2023-06-24T13:15:39;15.45;;;4.35;;
45548;SDS011;31270;48.328;10.096;2023-06-24T13:18:04;4.85;;;3.40;;
45548;SDS011;31270;48.328;10.096;2023-06-24T13:20:30;5.57;;;3.42;;
45548;SDS011;31270;48.328;10.096;2023-06-24T13:22:56;3.95;;;3.08;;
45548;SDS011;31270;48.328;10.096;2023-06-24T13:25:21;3.47;;;3.03;;
45548;SDS011;31270;48.328;10.096;2023-06-24T13:27:47;3.40;;;3.10;;
45548;SDS011;31270;48.328;10.096;2023-06-24T13:30:13;3.65;;;3.22;;
45548;SDS011;31270;48.328;10.096;2023-06-24T13:32:40;3.40;;;3.10;;
45548;SDS011;31270;48.328;10.096;2023-06-24T13:35:06;21.17;;;4.00;;
45548;SDS011;31270;48.328;10.096;2023-06-24T13:37:32;3.42;;;3.13;;
45548;SDS011;31270;48.328;10.096;2023-06-24T13:39:57;3.65;;;3.35;;
45548;SDS011;31270;48.328;10.096;2023-06-24T13:42:23;4.68;;;3.50;;
45548;SDS011;31270;48.328;10.096;2023-06-24T13:44:50;3.42;;;3.13;;
45548;SDS011;31270;48.328;10.096;2023-06-24T13:47:16;3.80;;;3.40;;
45548;SDS011;31270;48.328;10.096;2023-06-24T13:49:42;4.80;;;4.30;;
45548;SDS011;31270;48.328;10.096;2023-06-24T13:52:07;3.58;;;3.28;;
45548;SDS011;31270;48.328;10.096;2023-06-24T13:54:33;3.67;;;3.33;;
45548;SDS011;31270;48.328;10.096;2023-06-24T13:57:00;4.18;;;3.83;;
45548;SDS011;31270;48.328;10.096;2023-06-24T13:59:26;5.15;;;3.38;;
45548;SDS011;31270;48.328;10.096;2023-06-24T14:01:57;4.28;;;3.28;;
45548;SDS011;31270;48.328;10.096;2023-06-24T14:04:23;3.30;;;3.00;;
45548;SDS011;31270;48.328;10.096;2023-06-24T14:06:49;4.20;;;3.80;;
45548;SDS011;31270;48.328;10.096;2023-06-24T14:09:15;3.67;;;3.25;;
45548;SDS011;31270;48.328;10.096;2023-06-24T14:11:40;3.45;;;3.15;;
45548;SDS011;31270;48.328;10.096;2023-06-24T14:14:06;4.78;;;3.35;;
45548;SDS011;31270;48.328;10.096;2023-06-24T14:16:31;3.30;;;3.00;;
45548;SDS011;31270;48.328;10.096;2023-06-24T14:18:57;4.65;;;2.88;;
45548;SDS011;31270;48.328;10.096;2023-06-24T14:21:23;3.75;;;3.28;;
45548;SDS011;31270;48.328;10.096;2023-06-24T14:23:49;3.90;;;3.50;;
45548;SDS011;31270;48.328;10.096;2023-06-24T14:26:15;3.50;;;3.20;;
45548;SDS011;31270;48.328;10.096;2023-06-24T14:28:41;3.58;;;3.25;;
45548;SDS011;31270;48.328;10.096;2023-06-24T14:31:07;3.47;;;3.17;;
45548;SDS011;31270;48.328;10.096;2023-06-24T14:33:32;3.58;;;3.00;;
45548;SDS011;31270;48.328;10.096;2023-06-24T14:35:58;3.50;;;3.20;;
45548;SDS011;31270;48.328;10.096;2023-06-24T14:38:24;4.05;;;3.30;;
45548;SDS011;31270;48.328;10.096;2023-06-24T14:40:49;3.92;;;3.53;;
45548;SDS011;31270;48.328;10.096;2023-06-24T14:43:15;4.60;;;3.60;;
45548;SDS011;31270;48.328;10.096;2023-06-24T14:45:40;4.25;;;3.85;;
45548;SDS011;31270;48.328;10.096;2023-06-24T14:48:06;3.72;;;3.42;;